Time;durP1;ratioP1;P1;durP2;ratioP2;P2;SDS_P1;SDS_P2;PMS_P1;PMS_P2;Temp;Humidity;BMP_temperature;BMP_pressure;BME280_temperature;BME280_humidity;BME280_pressure;Samples;Min_cycle;Max_cycle;Signal;HPM_P1;HPM_P2
2022/07/09 00:00:06;;;;;;;9.35;5.57;;;;;;;17.60;73.63;102662.09;4972660;28;20034;-81
2022/07/09 00:02:34;;;;;;;8.60;4.78;;;;;;;17.52;73.71;102651.72;4970198;28;20090;-81
2022/07/09 00:04:59;;;;;;;7.22;5.80;;;;;;;17.55;73.83;102656.91;4971458;28;20046;-81
2022/07/09 00:07:26;;;;;;;8.07;5.78;;;;;;;17.50;73.93;102658.13;4970700;28;20046;-83
2022/07/09 00:09:51;;;;;;;7.25;5.43;;;;;;;17.46;74.29;102652.00;4970027;28;20221;-82
2022/07/09 00:12:17;;;;;;;9.70;5.70;;;;;;;17.42;74.29;102648.59;4966600;28;20114;-82
2022/07/09 00:14:42;;;;;;;7.65;5.70;;;;;;;17.37;75.04;102644.41;4968355;28;20102;-82
2022/07/09 00:17:07;;;;;;;8.73;5.90;;;;;;;17.34;75.22;102649.94;4969446;28;20069;-81
2022/07/09 00:19:32;;;;;;;6.70;5.90;;;;;;;17.27;75.31;102644.00;4969823;28;20544;-82
2022/07/09 00:21:58;;;;;;;7.88;6.72;;;;;;;17.23;75.41;102646.94;4969342;28;20089;-81
2022/07/09 00:24:23;;;;;;;7.03;5.93;;;;;;;17.21;76.05;102644.31;4969833;28;20065;-81
2022/07/09 00:26:48;;;;;;;7.72;5.68;;;;;;;17.14;75.78;102638.38;4971211;28;20035;-81
2022/07/09 00:29:14;;;;;;;8.98;6.13;;;;;;;17.15;76.32;102642.81;4968367;28;20061;-81
2022/07/09 00:31:39;;;;;;;9.98;5.95;;;;;;;17.08;76.34;102644.06;4967537;28;20771;-81
2022/07/09 00:34:04;;;;;;;12.32;7.13;;;;;;;17.03;76.78;102634.47;4968838;28;20035;-81
2022/07/09 00:36:30;;;;;;;10.07;7.20;;;;;;;17.04;76.86;102649.66;4965886;28;20082;-81
2022/07/09 00:38:55;;;;;;;10.65;7.75;;;;;;;17.02;77.18;102644.38;4968566;28;20035;-81
2022/07/09 00:41:20;;;;;;;12.52;8.68;;;;;;;17.00;77.76;102642.69;4982916;28;20038;-82
2022/07/09 00:43:50;;;;;;;12.40;8.63;;;;;;;16.98;77.17;102641.91;4969506;28;20042;-81
2022/07/09 00:46:17;;;;;;;13.38;8.80;;;;;;;16.91;77.87;102634.13;4970266;28;20035;-81
2022/07/09 00:48:42;;;;;;;10.30;8.23;;;;;;;16.93;77.50;102637.63;4966587;28;20137;-81
2022/07/09 00:51:08;;;;;;;12.32;8.68;;;;;;;16.84;77.87;102621.91;4965646;28;20129;-81
2022/07/09 00:53:34;;;;;;;9.98;8.65;;;;;;;16.87;78.18;102637.91;4966365;28;20045;-81
2022/07/09 00:56:00;;;;;;;11.68;9.00;;;;;;;16.87;78.36;102637.91;4968327;28;20481;-81
2022/07/09 00:58:27;;;;;;;9.50;8.38;;;;;;;16.83;78.34;102643.53;4968456;28;20050;-81
2022/07/09 01:00:53;;;;;;;11.55;8.65;;;;;;;16.80;78.18;102644.53;4965544;28;20150;-81
2022/07/09 01:03:19;;;;;;;11.27;9.02;;;;;;;16.77;79.17;102638.44;4970091;28;20113;-81
2022/07/09 01:05:45;;;;;;;12.35;8.75;;;;;;;16.76;79.30;102642.97;4968728;28;20169;-81
2022/07/09 01:08:10;;;;;;;11.50;8.70;;;;;;;16.72;79.49;102640.44;4968242;28;20062;-81
2022/07/09 01:10:36;;;;;;;12.45;8.60;;;;;;;16.73;78.99;102632.34;4969798;28;20027;-81
2022/07/09 01:13:03;;;;;;;12.50;8.80;;;;;;;16.70;79.60;102640.53;4969340;28;20734;-81
2022/07/09 01:15:29;;;;;;;13.45;8.65;;;;;;;16.65;79.48;102640.75;4969753;28;20390;-81
2022/07/09 01:17:55;;;;;;;13.05;9.13;;;;;;;16.60;79.91;102632.03;4970059;28;20571;-81
2022/07/09 01:20:24;;;;;;;10.90;9.10;;;;;;;16.61;80.27;102631.09;4970558;28;20026;-81
2022/07/09 01:22:50;;;;;;;13.85;8.95;;;;;;;16.54;80.60;102632.31;4965841;28;20031;-81
2022/07/09 01:25:17;;;;;;;11.57;9.63;;;;;;;16.56;80.58;102629.56;4967752;28;20045;-81
2022/07/09 01:27:42;;;;;;;13.18;9.45;;;;;;;16.44;80.63;102621.13;4968254;28;20031;-81
2022/07/09 01:30:08;;;;;;;10.88;9.27;;;;;;;16.51;81.30;102620.81;4970290;28;20035;-81
2022/07/09 01:32:34;;;;;;;12.65;9.52;;;;;;;16.43;81.10;102605.97;4966397;28;20467;-81
2022/07/09 01:34:59;;;;;;;15.10;10.15;;;;;;;16.48;81.20;102618.31;4969473;28;20054;-81
2022/07/09 01:37:24;;;;;;;15.68;10.20;;;;;;;16.46;81.30;102613.00;4967969;28;20031;-80
2022/07/09 01:39:50;;;;;;;14.27;10.27;;;;;;;16.35;81.64;102604.59;4966103;28;20077;-81
2022/07/09 01:42:16;;;;;;;11.98;10.63;;;;;;;16.40;81.62;102600.72;4966790;28;20433;-81
2022/07/09 01:44:42;;;;;;;15.98;11.57;;;;;;;16.37;81.24;102592.78;4966166;28;20038;-81
2022/07/09 01:47:07;;;;;;;19.45;11.57;;;;;;;16.36;81.99;102596.44;4966231;28;20030;-81
2022/07/09 01:49:32;;;;;;;19.10;12.00;;;;;;;16.37;81.49;102597.31;4968270;28;20026;-81
2022/07/09 01:51:58;;;;;;;14.95;11.07;;;;;;;16.26;82.30;102584.41;4965390;28;20055;-81
2022/07/09 01:54:23;;;;;;;16.15;12.30;;;;;;;16.25;82.63;102592.50;4968518;28;20696;-81
2022/07/09 01:56:48;;;;;;;13.35;11.40;;;;;;;16.14;82.54;102582.28;4969228;28;20098;-81
2022/07/09 01:59:13;;;;;;;12.52;10.57;;;;;;;16.16;82.22;102586.63;4968879;28;20362;-80
2022/07/09 02:01:39;;;;;;;15.10;11.13;;;;;;;16.09;82.97;102598.63;4968624;28;20059;-81
2022/07/09 02:04:04;;;;;;;15.55;11.70;;;;;;;16.06;83.15;102592.50;4984635;28;20058;-81
2022/07/09 02:06:30;;;;;;;15.98;12.20;;;;;;;16.06;83.70;102597.88;4969970;28;20439;-81
2022/07/09 02:08:55;;;;;;;18.75;12.85;;;;;;;16.02;83.85;102590.91;4972145;28;20051;-80
2022/07/09 02:11:21;;;;;;;16.92;12.38;;;;;;;16.07;83.50;102596.94;4971957;28;20138;-81
2022/07/09 02:13:46;;;;;;;16.17;12.30;;;;;;;16.06;82.93;102592.50;4967162;28;20027;-81
2022/07/09 02:16:11;;;;;;;16.52;11.77;;;;;;;16.02;83.13;102593.59;4967413;28;20047;-81
2022/07/09 02:18:36;;;;;;;12.45;11.15;;;;;;;15.98;83.02;102586.63;4962327;28;20122;-81
2022/07/09 02:21:02;;;;;;;13.35;10.95;;;;;;;15.94;82.81;102588.56;4960843;28;20027;-81
2022/07/09 02:23:27;;;;;;;11.07;9.98;;;;;;;15.86;83.27;102579.97;4967999;28;20030;-81
2022/07/09 02:25:53;;;;;;;12.18;10.07;;;;;;;15.85;83.30;102581.81;4967650;28;20023;-80
2022/07/09 02:28:18;;;;;;;12.07;10.27;;;;;;;15.83;83.26;102572.06;4967597;28;20027;-80
2022/07/09 02:30:43;;;;;;;11.88;10.60;;;;;;;15.83;82.95;102585.47;4963796;28;20421;-81
2022/07/09 02:33:09;;;;;;;11.80;10.55;;;;;;;15.75;83.03;102575.09;4967017;28;20043;-80
2022/07/09 02:35:34;;;;;;;14.85;11.35;;;;;;;15.76;82.66;102579.53;4966555;28;20026;-80
2022/07/09 02:38:00;;;;;;;13.05;11.45;;;;;;;15.74;82.94;102580.53;4965564;28;20038;-81
2022/07/09 02:40:25;;;;;;;13.00;10.45;;;;;;;15.69;82.85;102580.75;4965440;28;20045;-80
2022/07/09 02:42:50;;;;;;;12.02;10.82;;;;;;;15.67;83.08;102575.47;4967097;28;20503;-80
2022/07/09 02:45:15;;;;;;;12.15;10.55;;;;;;;15.66;82.70;102579.06;4966280;28;20499;-80
2022/07/09 02:47:41;;;;;;;12.20;10.55;;;;;;;15.63;83.15;102576.50;4964191;28;20182;-81
2022/07/09 02:50:06;;;;;;;13.27;11.15;;;;;;;15.57;83.34;102567.84;4967627;28;20037;-80
2022/07/09 02:52:32;;;;;;;12.73;11.40;;;;;;;15.49;83.84;102576.22;4964952;28;20055;-81
2022/07/09 02:54:57;;;;;;;12.52;11.23;;;;;;;15.44;83.92;102573.75;4965177;28;20792;-81
2022/07/09 02:57:22;;;;;;;13.80;11.82;;;;;;;15.40;84.60;102568.59;4967272;28;20077;-81
2022/07/09 02:59:47;;;;;;;13.70;12.20;;;;;;;15.38;84.88;102568.66;4966566;28;20027;-81
2022/07/09 03:02:13;;;;;;;13.63;12.20;;;;;;;15.34;85.38;102567.03;4964769;28;20022;-81
2022/07/09 03:04:38;;;;;;;15.18;12.27;;;;;;;15.32;85.66;102565.34;4966899;28;20322;-81
2022/07/09 03:07:04;;;;;;;13.95;12.57;;;;;;;15.32;85.56;102565.34;4965467;28;20078;-81
2022/07/09 03:09:29;;;;;;;15.50;11.90;;;;;;;15.30;85.37;102567.22;4966750;28;20155;-81
2022/07/09 03:11:54;;;;;;;15.07;12.52;;;;;;;15.30;85.44;102565.44;4965830;28;20117;-81
2022/07/09 03:14:20;;;;;;;16.05;13.00;;;;;;;15.23;85.57;102557.72;4963916;28;20026;-80
2022/07/09 03:16:45;;;;;;;15.95;12.32;;;;;;;15.28;85.38;102559.25;4965735;28;20463;-81
2022/07/09 03:19:10;;;;;;;14.55;12.82;;;;;;;15.27;85.57;102565.56;4966242;28;20064;-81
2022/07/09 03:21:36;;;;;;;15.05;12.35;;;;;;;15.27;85.75;102560.19;4967264;28;20107;-81
2022/07/09 03:24:02;;;;;;;17.20;13.23;;;;;;;15.22;86.07;102564.91;4967984;28;20074;-81
2022/07/09 03:26:28;;;;;;;17.08;14.68;;;;;;;15.21;86.58;102555.06;4967782;28;20807;-81
2022/07/09 03:28:53;;;;;;;19.17;13.82;;;;;;;15.18;86.37;102553.41;4979286;28;20291;-81
2022/07/09 03:31:18;;;;;;;14.02;11.57;;;;;;;15.18;85.68;102560.59;4966251;28;20115;-81
2022/07/09 03:33:44;;;;;;;16.30;12.57;;;;;;;15.09;85.65;102555.59;4965214;28;20031;-81
2022/07/09 03:36:09;;;;;;;17.85;12.98;;;;;;;15.09;85.84;102561.88;4966768;28;20113;-81
2022/07/09 03:38:35;;;;;;;16.30;13.35;;;;;;;15.05;86.52;102565.63;4964823;28;20062;-81
2022/07/09 03:41:00;;;;;;;14.73;13.23;;;;;;;15.00;87.00;102556.00;4964024;28;20114;-81
2022/07/09 03:43:25;;;;;;;14.85;12.77;;;;;;;14.99;87.12;102556.94;4964323;28;20081;-81
2022/07/09 03:45:50;;;;;;;18.88;14.68;;;;;;;14.94;87.35;102557.13;4966959;28;20386;-81
2022/07/09 03:48:17;;;;;;;20.40;15.32;;;;;;;14.95;87.65;102558.88;4966772;28;20085;-82
2022/07/09 03:50:42;;;;;;;19.83;16.08;;;;;;;15.00;87.90;102562.22;4964558;28;20388;-81
2022/07/09 03:53:07;;;;;;;20.88;15.85;;;;;;;15.01;87.82;102558.63;4966839;28;20023;-81
2022/07/09 03:55:33;;;;;;;17.63;14.07;;;;;;;14.97;87.04;102561.50;4964852;28;20074;-81
2022/07/09 03:57:58;;;;;;;16.52;13.90;;;;;;;14.97;86.99;102564.19;4965430;28;20477;-82
2022/07/09 04:00:23;;;;;;;17.58;14.27;;;;;;;14.96;87.30;102560.63;4965041;28;20045;-81
2022/07/09 04:02:48;;;;;;;26.42;18.48;;;;;;;15.02;87.69;102567.53;4965815;28;20041;-81
2022/07/09 04:05:14;;;;;;;27.63;20.45;;;;;;;15.00;88.11;102562.22;4968306;28;20027;-81
2022/07/09 04:07:40;;;;;;;31.00;24.20;;;;;;;14.98;89.08;102557.88;4965978;28;20062;-81
2022/07/09 04:10:06;;;;;;;33.30;23.38;;;;;;;15.06;89.06;102561.13;4964872;28;20371;-81
2022/07/09 04:12:31;;;;;;;33.33;23.33;;;;;;;15.11;89.20;102562.66;4965033;28;21399;-81
2022/07/09 04:14:56;;;;;;;31.40;24.15;;;;;;;15.15;89.27;102563.41;4969627;28;20038;-81
2022/07/09 04:17:22;;;;;;;38.97;27.75;;;;;;;15.17;89.57;102556.16;4968406;28;20112;-81
2022/07/09 04:19:47;;;;;;;42.65;30.02;;;;;;;15.26;90.29;102562.94;4967553;28;20541;-80
2022/07/09 04:22:12;;;;;;;39.50;27.48;;;;;;;15.33;90.11;102553.69;4967380;28;20571;-80
2022/07/09 04:24:38;;;;;;;41.13;28.92;;;;;;;15.42;89.25;102559.53;4985956;28;20027;-81
2022/07/09 04:27:03;;;;;;;35.95;27.88;;;;;;;15.47;89.26;102555.75;4964436;28;20112;-82
2022/07/09 04:29:29;;;;;;;40.15;29.15;;;;;;;15.44;89.63;102556.78;4957375;28;20031;-82
2022/07/09 04:31:54;;;;;;;39.15;29.95;;;;;;;15.45;89.37;102561.19;4959482;28;20085;-81
2022/07/09 04:34:19;;;;;;;38.85;29.45;;;;;;;15.43;89.96;102560.41;4963180;28;20381;-81
2022/07/09 04:36:45;;;;;;;41.95;31.13;;;;;;;15.43;90.10;102550.53;4958870;28;20459;-81
2022/07/09 04:39:11;;;;;;;41.08;30.20;;;;;;;15.47;90.04;102553.06;4957459;28;20106;-81
2022/07/09 04:41:36;;;;;;;41.85;29.83;;;;;;;15.49;89.96;102544.03;4959783;28;20109;-81
2022/07/09 04:44:02;;;;;;;41.83;28.92;;;;;;;15.55;89.32;102553.59;4957911;28;20041;-82
2022/07/09 04:46:30;;;;;;;41.72;28.30;;;;;;;15.58;89.35;102545.41;4959865;28;20045;-82
2022/07/09 04:48:55;;;;;;;42.40;29.05;;;;;;;15.61;89.79;102548.84;4962789;28;20418;-82
2022/07/09 04:51:21;;;;;;;42.17;29.00;;;;;;;15.70;89.63;102550.28;4956136;28;20307;-82
2022/07/09 04:53:46;;;;;;;39.35;29.17;;;;;;;15.82;89.92;102552.41;4958694;28;20054;-83
2022/07/09 04:56:11;;;;;;;42.42;30.33;;;;;;;16.00;89.30;102542.59;4962053;28;20035;-82
2022/07/09 04:58:37;;;;;;;39.85;30.80;;;;;;;16.13;88.81;102546.47;4969918;28;20025;-82
2022/07/09 05:01:03;;;;;;;43.67;31.00;;;;;;;16.20;88.13;102541.69;4966384;28;20042;-82
2022/07/09 05:03:29;;;;;;;41.47;31.20;;;;;;;16.14;88.35;102541.97;4967382;28;20116;-82
2022/07/09 05:05:54;;;;;;;44.85;32.20;;;;;;;16.25;88.16;102541.47;4967623;28;20708;-82
2022/07/09 05:08:19;;;;;;;42.92;31.75;;;;;;;16.39;88.16;102541.69;4967931;28;20124;-83
2022/07/09 05:10:45;;;;;;;44.10;31.08;;;;;;;16.54;87.77;102542.75;4966945;28;20044;-82
2022/07/09 05:13:10;;;;;;;41.03;29.65;;;;;;;16.66;87.37;102539.44;4971183;28;20392;-84
2022/07/09 05:15:36;;;;;;;39.35;29.30;;;;;;;16.86;85.85;102550.13;4968995;28;20046;-84
2022/07/09 05:18:01;;;;;;;37.92;28.98;;;;;;;16.96;85.85;102541.56;4967423;28;20541;-81
2022/07/09 05:20:27;;;;;;;37.80;28.70;;;;;;;17.08;84.35;102551.72;4968089;28;20038;-82
2022/07/09 05:22:53;;;;;;;40.10;29.85;;;;;;;17.19;83.83;102543.97;4963502;28;20118;-82
2022/07/09 05:25:18;;;;;;;38.28;29.15;;;;;;;17.31;83.10;102540.66;4974815;28;20110;-81
2022/07/09 05:27:45;;;;;;;37.50;28.70;;;;;;;17.35;82.62;102534.16;4978490;28;20086;-81
2022/07/09 05:30:15;;;;;;;36.33;27.35;;;;;;;17.49;81.22;102540.63;4979229;28;20038;-81
2022/07/09 05:32:41;;;;;;;35.90;27.50;;;;;;;17.54;81.45;102539.41;4969247;28;20037;-82
2022/07/09 05:35:07;;;;;;;36.55;27.92;;;;;;;17.65;81.08;102542.41;4967930;28;20033;-83
2022/07/09 05:37:32;;;;;;;37.10;27.73;;;;;;;17.75;80.84;102523.97;4966824;28;20447;-83
2022/07/09 05:39:58;;;;;;;30.85;26.17;;;;;;;17.89;80.06;102533.97;4964669;28;20023;-83
2022/07/09 05:42:23;;;;;;;39.83;28.08;;;;;;;17.94;79.91;102540.00;4968620;28;20031;-83
2022/07/09 05:44:49;;;;;;;38.60;28.83;;;;;;;18.00;78.39;102542.34;4967919;28;20501;-82
2022/07/09 05:47:15;;;;;;;34.95;27.50;;;;;;;18.08;78.54;102528.44;4968585;28;20041;-82
2022/07/09 05:49:40;;;;;;;31.50;27.08;;;;;;;18.13;78.48;102540.69;4967046;28;20535;-83
2022/07/09 05:52:06;;;;;;;32.72;25.25;;;;;;;18.20;77.99;102533.16;4966205;28;20142;-83
2022/07/09 05:54:31;;;;;;;30.42;24.38;;;;;;;18.25;77.64;102530.19;4968387;28;20023;-82
2022/07/09 05:56:56;;;;;;;29.45;24.77;;;;;;;18.28;77.48;102540.81;4967484;28;20034;-82
2022/07/09 05:59:21;;;;;;;32.40;24.35;;;;;;;18.27;76.50;102547.16;4966144;28;21215;-83
2022/07/09 06:01:47;;;;;;;34.53;24.60;;;;;;;18.31;76.89;102535.22;4965844;28;20035;-82
2022/07/09 06:04:12;;;;;;;30.92;23.05;;;;;;;18.29;76.80;102538.03;4968698;28;20027;-83
2022/07/09 06:06:37;;;;;;;28.73;22.33;;;;;;;18.35;76.29;102540.38;4968632;28;20038;-82
2022/07/09 06:09:03;;;;;;;24.48;19.50;;;;;;;18.37;75.07;102537.59;4965049;28;20035;-82
2022/07/09 06:11:28;;;;;;;26.35;21.13;;;;;;;18.40;75.14;102532.03;4961464;28;20038;-81
2022/07/09 06:13:53;;;;;;;25.40;20.42;;;;;;;18.63;75.42;102530.69;4965020;28;20049;-82
2022/07/09 06:16:19;;;;;;;30.85;20.38;;;;;;;19.03;74.19;102537.34;4970085;28;20030;-81
2022/07/09 06:18:44;;;;;;;24.00;18.50;;;;;;;19.35;71.66;102534.50;4967263;28;20056;-82
2022/07/09 06:21:10;;;;;;;25.63;21.70;;;;;;;19.58;72.47;102527.72;4968264;28;20027;-81
2022/07/09 06:23:35;;;;;;;26.60;22.95;;;;;;;19.60;70.84;102533.88;4968792;28;20519;-81
2022/07/09 06:26:00;;;;;;;28.00;23.17;;;;;;;19.50;71.50;102538.97;4972705;28;20053;-81
2022/07/09 06:28:26;;;;;;;27.95;24.20;;;;;;;19.36;71.16;102537.16;4971349;28;20069;-80
2022/07/09 06:30:51;;;;;;;26.85;22.77;;;;;;;19.36;71.46;102539.84;4969334;28;20027;-81
2022/07/09 06:33:16;;;;;;;27.83;23.50;;;;;;;19.40;70.84;102533.28;4968220;28;20042;-80
2022/07/09 06:35:41;;;;;;;31.00;24.98;;;;;;;19.49;71.37;102531.84;4967762;28;20027;-81
2022/07/09 06:38:07;;;;;;;26.08;22.40;;;;;;;19.65;70.19;102548.03;4968138;28;20081;-81
2022/07/09 06:40:34;;;;;;;28.90;24.48;;;;;;;19.74;69.88;102542.03;4969821;28;20037;-81
2022/07/09 06:42:59;;;;;;;27.10;22.90;;;;;;;19.79;69.05;102542.59;4964375;28;20581;-81
2022/07/09 06:45:24;;;;;;;29.52;24.58;;;;;;;19.89;70.04;102538.34;4971714;28;20118;-81
2022/07/09 06:47:50;;;;;;;25.90;22.20;;;;;;;19.95;68.83;102534.41;4968212;28;20110;-81
2022/07/09 06:50:15;;;;;;;24.05;19.75;;;;;;;19.95;68.29;102538.94;4966431;28;20039;-81
2022/07/09 06:52:40;;;;;;;20.73;18.52;;;;;;;19.99;68.71;102543.19;4968992;28;20042;-80
2022/07/09 06:55:06;;;;;;;20.15;16.35;;;;;;;20.18;67.34;102543.72;4965579;28;20033;-81
2022/07/09 06:57:31;;;;;;;18.88;15.10;;;;;;;20.46;66.40;102542.81;4971494;28;20213;-81
2022/07/09 06:59:57;;;;;;;18.23;14.98;;;;;;;20.52;66.41;102545.13;4965994;28;20042;-80
2022/07/09 07:02:22;;;;;;;19.42;16.20;;;;;;;20.39;66.47;102547.72;4969409;28;20518;-81
2022/07/09 07:04:47;;;;;;;18.38;14.70;;;;;;;20.28;67.00;102541.31;4968112;28;20034;-81
2022/07/09 07:07:13;;;;;;;18.88;15.50;;;;;;;20.32;67.33;102535.59;4972293;28;20031;-80
2022/07/09 07:09:38;;;;;;;16.33;14.55;;;;;;;20.46;67.52;102533.81;4965363;28;20425;-81
2022/07/09 07:12:05;;;;;;;19.30;14.80;;;;;;;20.65;67.58;102545.22;4975856;28;20035;-81
2022/07/09 07:14:30;;;;;;;16.42;14.38;;;;;;;21.00;66.18;102550.06;4968230;28;20033;-81
2022/07/09 07:16:55;;;;;;;15.43;13.05;;;;;;;21.46;64.65;102555.06;4968207;28;20035;-81
2022/07/09 07:19:21;;;;;;;16.02;12.73;;;;;;;21.64;63.26;102551.91;4967313;28;20027;-81
2022/07/09 07:21:47;;;;;;;15.20;12.75;;;;;;;21.82;63.08;102557.00;4968513;28;20896;-82
2022/07/09 07:24:13;;;;;;;13.80;11.50;;;;;;;21.89;62.24;102548.31;4967754;28;20741;-81
2022/07/09 07:26:38;;;;;;;13.07;10.93;;;;;;;21.85;61.34;102548.66;4968784;28;20034;-81
2022/07/09 07:29:04;;;;;;;12.15;10.95;;;;;;;21.79;61.41;102552.69;4948790;28;20381;-80
2022/07/09 07:31:29;;;;;;;13.98;11.82;;;;;;;21.88;61.51;102543.88;4968520;28;20026;-81
2022/07/09 07:33:54;;;;;;;13.23;10.93;;;;;;;22.33;60.64;102537.97;4968590;28;20073;-81
2022/07/09 07:36:20;;;;;;;15.85;11.60;;;;;;;22.70;58.96;102538.81;4967065;28;20058;-81
2022/07/09 07:38:46;;;;;;;12.98;11.57;;;;;;;23.10;58.54;102538.47;4973017;28;20025;-82
2022/07/09 07:41:12;;;;;;;15.32;11.05;;;;;;;23.34;57.05;102541.16;4968247;28;20023;-81
2022/07/09 07:43:38;;;;;;;13.20;10.63;;;;;;;23.65;56.28;102538.72;4966877;28;20046;-82
2022/07/09 07:46:03;;;;;;;17.77;12.27;;;;;;;23.61;55.98;102538.94;4971623;28;20476;-81
2022/07/09 07:48:30;;;;;;;12.90;11.35;;;;;;;23.44;55.48;102536.72;4970553;28;20034;-81
2022/07/09 07:50:55;;;;;;;14.05;11.45;;;;;;;23.74;55.19;102551.59;4971986;28;20073;-82
2022/07/09 07:53:21;;;;;;;14.88;10.60;;;;;;;23.96;55.08;102539.88;4972032;28;20465;-82
2022/07/09 07:55:46;;;;;;;19.23;10.77;;;;;;;24.05;56.08;102545.44;4971432;28;20385;-81
2022/07/09 07:58:11;;;;;;;15.07;9.68;;;;;;;24.00;54.62;102547.66;4962968;28;20110;-81
2022/07/09 08:00:37;;;;;;;13.32;11.52;;;;;;;23.83;54.30;102553.63;4970296;28;20077;-81
2022/07/09 08:03:03;;;;;;;13.45;10.40;;;;;;;23.71;55.14;102555.44;4971163;28;20175;-81
2022/07/09 08:05:28;;;;;;;13.05;10.35;;;;;;;23.92;54.63;102552.88;4972057;28;20035;-81
2022/07/09 08:07:53;;;;;;;13.65;10.93;;;;;;;24.14;53.58;102546.53;4970346;28;20737;-81
2022/07/09 08:10:19;;;;;;;11.45;10.15;;;;;;;24.58;52.46;102539.31;4971911;28;20110;-81
2022/07/09 08:12:44;;;;;;;13.30;10.80;;;;;;;24.61;51.67;102528.16;4971008;28;20084;-82
2022/07/09 08:15:10;;;;;;;13.02;9.13;;;;;;;24.80;51.32;102527.47;4972975;28;20253;-81
2022/07/09 08:17:35;;;;;;;12.90;8.43;;;;;;;24.65;50.76;102536.94;4970886;28;20030;-81
2022/07/09 08:20:00;;;;;;;9.25;7.72;;;;;;;24.40;52.05;102546.28;4970973;28;20023;-82
2022/07/09 08:22:25;;;;;;;13.43;9.48;;;;;;;24.02;52.01;102539.38;4971241;28;20369;-81
2022/07/09 08:24:51;;;;;;;16.05;9.98;;;;;;;24.34;52.03;102529.44;4970728;28;20034;-81
2022/07/09 08:27:16;;;;;;;18.63;12.55;;;;;;;24.58;51.41;102523.84;4971764;28;20034;-81
2022/07/09 08:29:42;;;;;;;15.02;9.18;;;;;;;24.87;50.62;102531.38;4970025;28;20370;-82
2022/07/09 08:32:08;;;;;;;10.15;8.90;;;;;;;25.80;47.27;102514.28;4971956;28;20117;-81
2022/07/09 08:34:33;;;;;;;12.55;9.40;;;;;;;26.52;45.85;102503.13;4971575;28;20141;-81
2022/07/09 08:36:58;;;;;;;10.77;9.30;;;;;;;26.79;45.00;102518.78;4970728;28;20038;-81
2022/07/09 08:39:24;;;;;;;13.82;10.10;;;;;;;26.99;44.85;102510.59;4970413;28;20082;-81
2022/07/09 08:41:50;;;;;;;11.70;8.52;;;;;;;27.69;42.46;102509.31;4971139;28;20121;-81
2022/07/09 08:44:17;;;;;;;10.88;8.02;;;;;;;28.38;42.04;102507.13;4988499;28;20046;-81
2022/07/09 08:46:42;;;;;;;8.57;7.35;;;;;;;28.17;41.30;102502.75;4986795;28;20031;-81
2022/07/09 08:49:08;;;;;;;10.73;7.90;;;;;;;27.42;42.75;102501.94;4985611;28;20062;-82
2022/07/09 08:51:36;;;;;;;11.30;8.65;;;;;;;26.58;43.88;102496.22;4995288;28;20057;-81
2022/07/09 08:54:02;;;;;;;8.88;7.07;;;;;;;26.67;43.85;102495.38;4986220;28;20061;-81
2022/07/09 08:56:27;;;;;;;11.45;8.52;;;;;;;27.28;43.86;102486.84;4971507;28;20038;-81
2022/07/09 08:58:53;;;;;;;14.60;11.20;;;;;;;27.94;42.88;102488.63;4968202;28;20038;-82
2022/07/09 09:01:18;;;;;;;10.57;9.48;;;;;;;28.65;40.86;102484.28;4972520;28;20027;-82
2022/07/09 09:03:45;;;;;;;12.43;11.00;;;;;;;29.03;39.82;102483.97;4971655;28;20417;-82
2022/07/09 09:06:11;;;;;;;13.65;10.75;;;;;;;29.08;39.84;102485.34;4971365;28;20027;-81
2022/07/09 09:08:38;;;;;;;11.30;8.45;;;;;;;28.91;40.08;102489.81;4968753;28;20507;-81
2022/07/09 09:11:13;;;;;;;12.57;11.27;;;;;;;28.61;40.32;102491.97;4970636;28;20041;-82
2022/07/09 09:13:43;;;;;;;12.25;10.88;;;;;;;28.72;41.41;102480.78;4971166;28;20066;-81
2022/07/09 09:16:10;;;;;;;16.70;11.95;;;;;;;28.65;40.05;102478.81;4971883;28;20377;-81
2022/07/09 09:18:39;;;;;;;15.68;12.68;;;;;;;28.21;40.90;102487.75;4969115;28;20062;-81
2022/07/09 09:21:06;;;;;;;12.93;9.95;;;;;;;28.04;40.78;102491.31;4971271;28;20030;-81
2022/07/09 09:23:39;;;;;;;15.40;10.88;;;;;;;27.61;42.24;102484.59;4970824;28;20113;-82
2022/07/09 09:26:09;;;;;;;13.95;10.73;;;;;;;27.12;44.21;102492.06;4970110;28;20046;-81
2022/07/09 09:28:34;;;;;;;15.65;10.30;;;;;;;26.79;44.94;102488.75;4963275;28;20097;-81
2022/07/09 09:30:59;;;;;;;14.35;12.20;;;;;;;26.22;46.00;102486.81;4969794;28;20030;-83
2022/07/09 09:33:25;;;;;;;14.77;12.55;;;;;;;25.99;47.55;102488.91;4970913;28;20027;-82
2022/07/09 09:35:50;;;;;;;11.95;10.70;;;;;;;25.53;47.07;102493.00;4970516;28;20432;-81
2022/07/09 09:38:23;;;;;;;13.55;12.15;;;;;;;25.18;48.57;102490.66;4969721;28;20707;-84
2022/07/09 09:40:48;;;;;;;15.27;13.77;;;;;;;24.96;48.83;102487.03;4969377;28;20395;-80
2022/07/09 09:43:17;;;;;;;16.90;14.45;;;;;;;24.64;50.48;102492.50;4970819;28;20077;-81
2022/07/09 09:45:43;;;;;;;17.85;14.95;;;;;;;24.37;51.43;102490.25;4967672;28;20134;-77
2022/07/09 09:48:08;;;;;;;17.45;15.60;;;;;;;24.22;52.12;102488.78;4968275;28;20102;-81
2022/07/09 09:50:35;;;;;;;19.20;16.20;;;;;;;24.01;52.71;102495.00;4969492;28;20022;-80
2022/07/09 09:53:01;;;;;;;21.63;19.25;;;;;;;23.82;53.68;102492.03;4968812;28;20027;-81
2022/07/09 09:55:26;;;;;;;25.73;23.02;;;;;;;23.63;54.44;102487.22;4968242;28;20118;-81
2022/07/09 09:57:53;;;;;;;22.67;20.30;;;;;;;23.62;54.98;102480.06;4968866;28;20117;-81
2022/07/09 10:00:18;;;;;;;23.75;19.33;;;;;;;23.96;54.21;102485.50;4969408;28;20466;-81
2022/07/09 10:02:45;;;;;;;23.95;21.35;;;;;;;24.54;52.39;102486.13;4969870;28;20110;-81
2022/07/09 10:05:11;;;;;;;21.83;19.55;;;;;;;25.11;51.18;102481.28;4970510;28;20123;-81
2022/07/09 10:07:37;;;;;;;22.33;19.88;;;;;;;25.15;50.43;102488.19;4966046;28;20101;-81
2022/07/09 10:10:05;;;;;;;21.95;19.63;;;;;;;24.97;51.01;102477.88;4968620;28;20069;-81
2022/07/09 10:12:34;;;;;;;21.63;17.10;;;;;;;24.89;51.77;102471.34;4969294;28;20045;-81
2022/07/09 10:15:00;;;;;;;23.55;19.63;;;;;;;24.90;52.04;102471.22;4970417;28;20046;-81
2022/07/09 10:17:26;;;;;;;21.60;19.27;;;;;;;24.98;50.78;102474.13;4967994;28;20046;-81
2022/07/09 10:19:55;;;;;;;21.13;18.70;;;;;;;24.69;52.16;102478.50;4969731;28;20484;-80
2022/07/09 10:22:41;;;;;;;21.60;19.45;;;;;;;24.46;52.34;102466.84;4969509;28;20086;-80
2022/07/09 10:25:08;;;;;;;22.65;19.80;;;;;;;24.00;53.97;102462.50;4969691;28;20050;-80
2022/07/09 10:27:44;;;;;;;21.98;18.42;;;;;;;23.67;54.94;102461.53;4968188;28;20058;-81
2022/07/09 10:30:28;;;;;;;19.60;17.73;;;;;;;23.42;55.70;102461.75;4984820;28;20129;-81
2022/07/09 10:33:03;;;;;;;;;;;;;;;23.53;54.76;102478.03;4969967;28;20023;-80
2022/07/09 10:35:29;;;;;;;23.45;19.80;;;;;;;22.95;56.69;102466.34;4969202;28;19918;-81
2022/07/09 10:37:54;;;;;;;19.50;17.45;;;;;;;22.78;57.34;102473.94;4967290;28;20078;-81
2022/07/09 10:40:22;;;;;;;17.77;16.00;;;;;;;22.79;57.93;102478.38;4984104;28;20031;-81
2022/07/09 10:43:02;;;;;;;16.00;13.75;;;;;;;24.50;54.86;102479.22;4969407;28;20073;-81
2022/07/09 10:45:35;;;;;;;14.30;11.23;;;;;;;25.86;49.64;102458.28;4967714;28;20027;-82
2022/07/09 10:48:01;;;;;;;11.95;9.10;;;;;;;26.34;47.59;102463.88;4968175;28;20069;-82
2022/07/09 10:50:29;;;;;;;12.43;10.05;;;;;;;25.96;48.18;102460.06;4969332;28;20034;-82
2022/07/09 10:52:56;;;;;;;11.63;10.05;;;;;;;25.84;48.18;102463.91;4968502;28;20238;-82
2022/07/09 10:55:26;;;;;;;10.80;9.70;;;;;;;25.53;49.90;102477.50;4969418;28;20113;-82
2022/07/09 10:57:53;;;;;;;11.82;9.00;;;;;;;25.22;50.08;102478.50;4967935;28;20031;-82
2022/07/09 11:00:20;;;;;;;10.80;8.25;;;;;;;24.84;50.92;102466.31;4969328;28;20461;-81
2022/07/09 11:03:05;;;;;;;10.93;8.35;;;;;;;25.44;51.11;102470.16;4969601;28;20102;-81
2022/07/09 11:05:33;;;;;;;9.57;7.15;;;;;;;27.80;45.25;102465.38;4969650;28;20499;-81